sensor_id;sensor_type;location;lat;lon;timestamp;P1;durP1;ratioP1;P2;durP2;ratioP2
20511;SDS011;10414;52.074;5.126;2023-04-30T00:00:02;18.20;;;7.63;;
20511;SDS011;10414;52.074;5.126;2023-04-30T00:02:33;19.60;;;8.20;;
20511;SDS011;10414;52.074;5.126;2023-04-30T00:05:00;25.02;;;9.77;;
20511;SDS011;10414;52.074;5.126;2023-04-30T00:07:27;17.40;;;8.70;;
20511;SDS011;10414;52.074;5.126;2023-04-30T00:09:54;17.13;;;8.63;;
20511;SDS011;10414;52.074;5.126;2023-04-30T00:12:20;22.20;;;8.98;;
20511;SDS011;10414;52.074;5.126;2023-04-30T00:14:47;24.63;;;9.60;;
20511;SDS011;10414;52.074;5.126;2023-04-30T00:17:14;21.70;;;9.20;;
20511;SDS011;10414;52.074;5.126;2023-04-30T00:19:42;21.27;;;8.90;;
20511;SDS011;10414;52.074;5.126;2023-04-30T00:22:09;17.55;;;7.85;;
20511;SDS011;10414;52.074;5.126;2023-04-30T00:24:36;20.50;;;8.32;;
20511;SDS011;10414;52.074;5.126;2023-04-30T00:27:03;17.05;;;8.77;;
20511;SDS011;10414;52.074;5.126;2023-04-30T00:29:30;18.40;;;8.32;;
20511;SDS011;10414;52.074;5.126;2023-04-30T00:31:57;18.70;;;8.63;;
20511;SDS011;10414;52.074;5.126;2023-04-30T00:34:23;19.83;;;9.07;;
20511;SDS011;10414;52.074;5.126;2023-04-30T00:36:51;23.42;;;9.20;;
20511;SDS011;10414;52.074;5.126;2023-04-30T00:39:18;20.48;;;9.05;;
20511;SDS011;10414;52.074;5.126;2023-04-30T00:41:45;17.92;;;9.10;;
20511;SDS011;10414;52.074;5.126;2023-04-30T00:44:12;23.38;;;10.27;;
20511;SDS011;10414;52.074;5.126;2023-04-30T00:46:39;25.55;;;10.35;;
20511;SDS011;10414;52.074;5.126;2023-04-30T00:49:06;19.00;;;9.80;;
20511;SDS011;10414;52.074;5.126;2023-04-30T00:51:33;20.65;;;9.70;;
20511;SDS011;10414;52.074;5.126;2023-04-30T00:54:02;28.02;;;10.75;;
20511;SDS011;10414;52.074;5.126;2023-04-30T00:56:29;23.13;;;10.18;;
20511;SDS011;10414;52.074;5.126;2023-04-30T00:58:56;26.65;;;10.35;;
20511;SDS011;10414;52.074;5.126;2023-04-30T01:01:24;22.65;;;10.80;;
20511;SDS011;10414;52.074;5.126;2023-04-30T01:03:53;26.67;;;11.18;;
20511;SDS011;10414;52.074;5.126;2023-04-30T01:06:20;23.50;;;10.43;;
20511;SDS011;10414;52.074;5.126;2023-04-30T01:08:47;24.58;;;10.60;;
20511;SDS011;10414;52.074;5.126;2023-04-30T01:11:19;21.88;;;10.63;;
20511;SDS011;10414;52.074;5.126;2023-04-30T01:13:52;27.80;;;10.98;;
20511;SDS011;10414;52.074;5.126;2023-04-30T01:16:33;21.08;;;10.38;;
20511;SDS011;10414;52.074;5.126;2023-04-30T01:19:04;22.33;;;9.98;;
20511;SDS011;10414;52.074;5.126;2023-04-30T01:21:36;23.23;;;10.70;;
20511;SDS011;10414;52.074;5.126;2023-04-30T01:24:14;19.55;;;11.02;;
20511;SDS011;10414;52.074;5.126;2023-04-30T01:27:05;24.90;;;10.30;;
20511;SDS011;10414;52.074;5.126;2023-04-30T01:29:40;20.00;;;9.52;;
20511;SDS011;10414;52.074;5.126;2023-04-30T01:32:08;23.88;;;11.10;;
20511;SDS011;10414;52.074;5.126;2023-04-30T01:34:36;21.48;;;10.73;;
20511;SDS011;10414;52.074;5.126;2023-04-30T01:37:10;22.15;;;11.70;;
20511;SDS011;10414;52.074;5.126;2023-04-30T01:39:47;26.63;;;11.55;;
20511;SDS011;10414;52.074;5.126;2023-04-30T01:42:24;25.83;;;11.70;;
20511;SDS011;10414;52.074;5.126;2023-04-30T01:45:04;24.52;;;10.82;;
20511;SDS011;10414;52.074;5.126;2023-04-30T01:47:45;23.33;;;11.23;;
20511;SDS011;10414;52.074;5.126;2023-04-30T01:50:20;28.15;;;12.02;;
20511;SDS011;10414;52.074;5.126;2023-04-30T01:52:54;28.10;;;12.60;;
20511;SDS011;10414;52.074;5.126;2023-04-30T01:55:26;28.33;;;11.70;;
20511;SDS011;10414;52.074;5.126;2023-04-30T01:58:00;24.35;;;9.77;;
20511;SDS011;10414;52.074;5.126;2023-04-30T02:00:29;24.98;;;11.60;;
20511;SDS011;10414;52.074;5.126;2023-04-30T02:02:56;22.73;;;11.13;;
20511;SDS011;10414;52.074;5.126;2023-04-30T02:05:23;27.58;;;11.32;;
20511;SDS011;10414;52.074;5.126;2023-04-30T02:07:51;24.15;;;11.52;;
20511;SDS011;10414;52.074;5.126;2023-04-30T02:10:19;26.80;;;11.15;;
20511;SDS011;10414;52.074;5.126;2023-04-30T02:12:47;24.38;;;11.68;;
20511;SDS011;10414;52.074;5.126;2023-04-30T02:15:14;22.38;;;10.45;;
20511;SDS011;10414;52.074;5.126;2023-04-30T02:17:42;23.75;;;10.50;;
20511;SDS011;10414;52.074;5.126;2023-04-30T02:20:09;24.67;;;11.63;;
20511;SDS011;10414;52.074;5.126;2023-04-30T02:22:36;23.10;;;11.57;;
20511;SDS011;10414;52.074;5.126;2023-04-30T02:25:03;20.42;;;10.55;;
20511;SDS011;10414;52.074;5.126;2023-04-30T02:27:31;25.23;;;10.80;;
20511;SDS011;10414;52.074;5.126;2023-04-30T02:29:58;24.50;;;10.50;;
20511;SDS011;10414;52.074;5.126;2023-04-30T02:32:26;23.02;;;11.70;;
20511;SDS011;10414;52.074;5.126;2023-04-30T02:34:55;25.50;;;10.80;;
20511;SDS011;10414;52.074;5.126;2023-04-30T02:37:22;25.88;;;11.27;;
20511;SDS011;10414;52.074;5.126;2023-04-30T02:39:50;24.17;;;10.57;;
20511;SDS011;10414;52.074;5.126;2023-04-30T02:42:17;22.35;;;11.23;;
20511;SDS011;10414;52.074;5.126;2023-04-30T02:44:44;21.20;;;11.70;;
20511;SDS011;10414;52.074;5.126;2023-04-30T02:47:11;24.67;;;10.07;;
20511;SDS011;10414;52.074;5.126;2023-04-30T02:49:38;23.13;;;11.32;;
20511;SDS011;10414;52.074;5.126;2023-04-30T02:52:06;22.40;;;10.63;;
20511;SDS011;10414;52.074;5.126;2023-04-30T02:54:34;21.00;;;10.20;;
20511;SDS011;10414;52.074;5.126;2023-04-30T02:57:01;19.50;;;9.73;;
20511;SDS011;10414;52.074;5.126;2023-04-30T02:59:27;19.92;;;9.85;;
20511;SDS011;10414;52.074;5.126;2023-04-30T03:01:54;22.40;;;9.88;;
20511;SDS011;10414;52.074;5.126;2023-04-30T03:04:21;18.95;;;9.70;;
20511;SDS011;10414;52.074;5.126;2023-04-30T03:06:48;21.10;;;9.77;;
20511;SDS011;10414;52.074;5.126;2023-04-30T03:09:16;22.45;;;9.57;;
20511;SDS011;10414;52.074;5.126;2023-04-30T03:11:43;21.77;;;10.52;;
20511;SDS011;10414;52.074;5.126;2023-04-30T03:14:10;21.25;;;10.23;;
20511;SDS011;10414;52.074;5.126;2023-04-30T03:16:37;21.15;;;10.07;;
20511;SDS011;10414;52.074;5.126;2023-04-30T03:19:04;21.85;;;10.63;;
20511;SDS011;10414;52.074;5.126;2023-04-30T03:21:30;24.50;;;10.85;;
20511;SDS011;10414;52.074;5.126;2023-04-30T03:23:57;20.73;;;9.80;;
20511;SDS011;10414;52.074;5.126;2023-04-30T03:26:26;24.08;;;10.57;;
20511;SDS011;10414;52.074;5.126;2023-04-30T03:28:53;25.17;;;10.93;;
20511;SDS011;10414;52.074;5.126;2023-04-30T03:31:20;20.92;;;10.23;;
20511;SDS011;10414;52.074;5.126;2023-04-30T03:33:47;19.67;;;10.23;;
20511;SDS011;10414;52.074;5.126;2023-04-30T03:36:13;18.90;;;8.88;;
20511;SDS011;10414;52.074;5.126;2023-04-30T03:38:40;21.77;;;9.82;;
20511;SDS011;10414;52.074;5.126;2023-04-30T03:41:07;25.17;;;10.80;;
20511;SDS011;10414;52.074;5.126;2023-04-30T03:43:36;20.88;;;10.10;;
20511;SDS011;10414;52.074;5.126;2023-04-30T03:46:03;24.20;;;10.60;;
20511;SDS011;10414;52.074;5.126;2023-04-30T03:48:30;20.13;;;9.98;;
20511;SDS011;10414;52.074;5.126;2023-04-30T03:50:57;23.33;;;9.60;;
20511;SDS011;10414;52.074;5.126;2023-04-30T03:53:24;21.63;;;9.93;;
20511;SDS011;10414;52.074;5.126;2023-04-30T03:55:51;18.90;;;9.50;;
20511;SDS011;10414;52.074;5.126;2023-04-30T03:58:19;18.38;;;9.52;;
20511;SDS011;10414;52.074;5.126;2023-04-30T04:00:47;23.77;;;9.48;;
20511;SDS011;10414;52.074;5.126;2023-04-30T04:03:15;18.85;;;9.23;;
20511;SDS011;10414;52.074;5.126;2023-04-30T04:05:42;21.92;;;9.35;;
20511;SDS011;10414;52.074;5.126;2023-04-30T04:08:09;18.63;;;9.23;;
20511;SDS011;10414;52.074;5.126;2023-04-30T04:10:36;21.17;;;9.00;;
20511;SDS011;10414;52.074;5.126;2023-04-30T04:13:04;21.50;;;9.02;;
20511;SDS011;10414;52.074;5.126;2023-04-30T04:15:31;19.17;;;9.38;;
20511;SDS011;10414;52.074;5.126;2023-04-30T04:17:59;21.40;;;9.80;;
20511;SDS011;10414;52.074;5.126;2023-04-30T04:20:26;20.45;;;10.18;;
20511;SDS011;10414;52.074;5.126;2023-04-30T04:22:54;18.17;;;9.02;;
20511;SDS011;10414;52.074;5.126;2023-04-30T04:25:21;18.88;;;9.18;;
20511;SDS011;10414;52.074;5.126;2023-04-30T04:27:49;19.70;;;8.85;;
20511;SDS011;10414;52.074;5.126;2023-04-30T04:30:16;21.38;;;9.27;;
20511;SDS011;10414;52.074;5.126;2023-04-30T04:32:42;18.33;;;9.00;;
20511;SDS011;10414;52.074;5.126;2023-04-30T04:35:14;17.52;;;8.60;;
20511;SDS011;10414;52.074;5.126;2023-04-30T04:37:42;19.10;;;8.95;;
20511;SDS011;10414;52.074;5.126;2023-04-30T04:40:09;19.23;;;8.95;;
20511;SDS011;10414;52.074;5.126;2023-04-30T04:42:37;20.70;;;9.13;;
20511;SDS011;10414;52.074;5.126;2023-04-30T04:45:05;18.45;;;7.97;;
20511;SDS011;10414;52.074;5.126;2023-04-30T04:47:33;20.20;;;8.35;;
20511;SDS011;10414;52.074;5.126;2023-04-30T04:50:00;17.27;;;8.77;;
20511;SDS011;10414;52.074;5.126;2023-04-30T04:52:28;15.93;;;7.97;;
20511;SDS011;10414;52.074;5.126;2023-04-30T04:54:55;15.02;;;7.32;;
20511;SDS011;10414;52.074;5.126;2023-04-30T04:57:23;19.17;;;7.78;;
20511;SDS011;10414;52.074;5.126;2023-04-30T04:59:50;15.70;;;7.15;;
20511;SDS011;10414;52.074;5.126;2023-04-30T05:02:17;15.18;;;7.28;;
20511;SDS011;10414;52.074;5.126;2023-04-30T05:04:44;14.32;;;7.43;;
20511;SDS011;10414;52.074;5.126;2023-04-30T05:09:42;14.52;;;7.30;;
20511;SDS011;10414;52.074;5.126;2023-04-30T05:12:09;15.38;;;7.60;;
20511;SDS011;10414;52.074;5.126;2023-04-30T05:14:36;15.00;;;6.95;;
20511;SDS011;10414;52.074;5.126;2023-04-30T05:17:03;11.05;;;5.95;;
20511;SDS011;10414;52.074;5.126;2023-04-30T05:19:30;12.32;;;5.47;;
20511;SDS011;10414;52.074;5.126;2023-04-30T05:21:57;11.43;;;5.82;;
20511;SDS011;10414;52.074;5.126;2023-04-30T05:24:25;9.63;;;5.10;;
20511;SDS011;10414;52.074;5.126;2023-04-30T05:26:53;12.40;;;5.70;;
20511;SDS011;10414;52.074;5.126;2023-04-30T05:29:20;9.00;;;4.93;;
20511;SDS011;10414;52.074;5.126;2023-04-30T05:31:47;12.57;;;4.85;;
20511;SDS011;10414;52.074;5.126;2023-04-30T05:34:14;9.80;;;5.03;;
20511;SDS011;10414;52.074;5.126;2023-04-30T05:36:41;8.70;;;4.68;;
20511;SDS011;10414;52.074;5.126;2023-04-30T05:39:07;9.20;;;4.40;;
20511;SDS011;10414;52.074;5.126;2023-04-30T05:41:34;7.78;;;4.05;;
20511;SDS011;10414;52.074;5.126;2023-04-30T05:44:02;10.13;;;4.30;;
20511;SDS011;10414;52.074;5.126;2023-04-30T05:46:30;8.60;;;4.55;;
20511;SDS011;10414;52.074;5.126;2023-04-30T05:48:57;13.27;;;4.60;;
20511;SDS011;10414;52.074;5.126;2023-04-30T05:51:24;7.63;;;4.50;;
20511;SDS011;10414;52.074;5.126;2023-04-30T05:53:51;9.30;;;4.80;;
20511;SDS011;10414;52.074;5.126;2023-04-30T05:56:18;8.95;;;4.75;;
20511;SDS011;10414;52.074;5.126;2023-04-30T05:58:46;9.32;;;4.35;;
20511;SDS011;10414;52.074;5.126;2023-04-30T06:01:14;10.50;;;4.93;;
20511;SDS011;10414;52.074;5.126;2023-04-30T06:03:43;9.30;;;4.55;;
20511;SDS011;10414;52.074;5.126;2023-04-30T06:06:10;10.00;;;4.88;;
20511;SDS011;10414;52.074;5.126;2023-04-30T06:08:37;8.82;;;5.03;;
20511;SDS011;10414;52.074;5.126;2023-04-30T06:11:06;9.95;;;5.00;;
20511;SDS011;10414;52.074;5.126;2023-04-30T06:13:33;9.27;;;5.93;;
20511;SDS011;10414;52.074;5.126;2023-04-30T06:15:59;10.18;;;5.95;;
20511;SDS011;10414;52.074;5.126;2023-04-30T06:18:28;8.07;;;5.45;;
20511;SDS011;10414;52.074;5.126;2023-04-30T06:20:54;10.95;;;5.75;;
20511;SDS011;10414;52.074;5.126;2023-04-30T06:23:21;9.98;;;6.07;;
20511;SDS011;10414;52.074;5.126;2023-04-30T06:25:48;10.35;;;6.68;;
20511;SDS011;10414;52.074;5.126;2023-04-30T06:28:15;11.77;;;6.90;;
20511;SDS011;10414;52.074;5.126;2023-04-30T06:30:42;11.20;;;6.72;;
20511;SDS011;10414;52.074;5.126;2023-04-30T06:33:09;12.10;;;6.93;;
20511;SDS011;10414;52.074;5.126;2023-04-30T06:35:37;11.48;;;6.65;;
20511;SDS011;10414;52.074;5.126;2023-04-30T06:38:04;13.02;;;7.18;;
20511;SDS011;10414;52.074;5.126;2023-04-30T06:40:31;11.07;;;6.28;;
20511;SDS011;10414;52.074;5.126;2023-04-30T06:42:58;9.70;;;5.53;;
20511;SDS011;10414;52.074;5.126;2023-04-30T06:45:25;10.38;;;5.95;;
20511;SDS011;10414;52.074;5.126;2023-04-30T06:47:52;10.00;;;4.95;;
20511;SDS011;10414;52.074;5.126;2023-04-30T06:50:19;10.63;;;4.70;;
20511;SDS011;10414;52.074;5.126;2023-04-30T06:52:48;9.02;;;4.57;;
20511;SDS011;10414;52.074;5.126;2023-04-30T06:55:15;10.50;;;4.10;;
20511;SDS011;10414;52.074;5.126;2023-04-30T06:57:41;7.18;;;3.85;;
20511;SDS011;10414;52.074;5.126;2023-04-30T07:00:09;8.05;;;4.20;;
20511;SDS011;10414;52.074;5.126;2023-04-30T07:02:36;8.35;;;3.63;;
20511;SDS011;10414;52.074;5.126;2023-04-30T07:05:03;7.55;;;3.38;;
20511;SDS011;10414;52.074;5.126;2023-04-30T07:07:31;7.45;;;3.85;;
20511;SDS011;10414;52.074;5.126;2023-04-30T07:09:59;8.93;;;3.78;;
20511;SDS011;10414;52.074;5.126;2023-04-30T07:12:25;7.60;;;3.40;;
20511;SDS011;10414;52.074;5.126;2023-04-30T07:14:52;7.97;;;3.90;;
20511;SDS011;10414;52.074;5.126;2023-04-30T07:17:19;6.72;;;3.38;;
20511;SDS011;10414;52.074;5.126;2023-04-30T07:19:46;6.85;;;3.50;;
20511;SDS011;10414;52.074;5.126;2023-04-30T07:22:13;7.40;;;3.45;;
20511;SDS011;10414;52.074;5.126;2023-04-30T07:24:40;8.63;;;4.00;;
20511;SDS011;10414;52.074;5.126;2023-04-30T07:27:08;7.15;;;3.67;;
20511;SDS011;10414;52.074;5.126;2023-04-30T07:29:35;7.65;;;3.60;;
20511;SDS011;10414;52.074;5.126;2023-04-30T07:32:02;6.65;;;3.70;;
20511;SDS011;10414;52.074;5.126;2023-04-30T07:34:29;7.10;;;3.45;;
20511;SDS011;10414;52.074;5.126;2023-04-30T07:36:56;7.32;;;3.97;;
20511;SDS011;10414;52.074;5.126;2023-04-30T07:39:23;7.55;;;3.72;;
20511;SDS011;10414;52.074;5.126;2023-04-30T07:41:50;6.75;;;3.83;;
20511;SDS011;10414;52.074;5.126;2023-04-30T07:44:18;7.25;;;3.40;;
20511;SDS011;10414;52.074;5.126;2023-04-30T07:46:45;6.78;;;3.33;;
20511;SDS011;10414;52.074;5.126;2023-04-30T07:49:12;9.40;;;3.70;;
20511;SDS011;10414;52.074;5.126;2023-04-30T07:51:39;6.72;;;3.05;;
20511;SDS011;10414;52.074;5.126;2023-04-30T07:54:07;8.40;;;3.33;;
20511;SDS011;10414;52.074;5.126;2023-04-30T07:56:33;9.57;;;3.17;;
20511;SDS011;10414;52.074;5.126;2023-04-30T07:59:00;6.63;;;3.50;;
20511;SDS011;10414;52.074;5.126;2023-04-30T08:01:29;5.57;;;3.47;;
20511;SDS011;10414;52.074;5.126;2023-04-30T08:03:55;7.60;;;3.60;;
20511;SDS011;10414;52.074;5.126;2023-04-30T08:06:22;6.43;;;3.28;;
20511;SDS011;10414;52.074;5.126;2023-04-30T08:08:51;6.47;;;3.47;;
20511;SDS011;10414;52.074;5.126;2023-04-30T08:11:18;6.20;;;3.42;;
20511;SDS011;10414;52.074;5.126;2023-04-30T08:13:45;6.65;;;3.65;;
20511;SDS011;10414;52.074;5.126;2023-04-30T08:16:12;6.22;;;3.38;;
20511;SDS011;10414;52.074;5.126;2023-04-30T08:18:40;6.05;;;3.25;;
20511;SDS011;10414;52.074;5.126;2023-04-30T08:21:09;8.63;;;3.95;;
20511;SDS011;10414;52.074;5.126;2023-04-30T08:23:36;6.28;;;3.72;;
20511;SDS011;10414;52.074;5.126;2023-04-30T08:26:03;7.47;;;3.80;;
20511;SDS011;10414;52.074;5.126;2023-04-30T08:28:30;6.28;;;2.72;;
20511;SDS011;10414;52.074;5.126;2023-04-30T08:30:57;6.85;;;3.40;;
20511;SDS011;10414;52.074;5.126;2023-04-30T08:33:24;6.43;;;3.15;;
20511;SDS011;10414;52.074;5.126;2023-04-30T08:35:52;7.40;;;3.63;;
20511;SDS011;10414;52.074;5.126;2023-04-30T08:38:19;6.20;;;3.40;;
20511;SDS011;10414;52.074;5.126;2023-04-30T08:40:47;6.10;;;3.50;;
20511;SDS011;10414;52.074;5.126;2023-04-30T08:43:21;5.35;;;3.35;;
20511;SDS011;10414;52.074;5.126;2023-04-30T08:45:48;5.53;;;3.38;;
20511;SDS011;10414;52.074;5.126;2023-04-30T08:48:16;6.80;;;3.67;;
20511;SDS011;10414;52.074;5.126;2023-04-30T08:50:46;7.55;;;3.63;;
20511;SDS011;10414;52.074;5.126;2023-04-30T08:53:14;5.55;;;3.88;;
20511;SDS011;10414;52.074;5.126;2023-04-30T08:55:45;6.50;;;4.18;;
20511;SDS011;10414;52.074;5.126;2023-04-30T08:58:12;6.63;;;3.80;;
20511;SDS011;10414;52.074;5.126;2023-04-30T09:00:39;7.38;;;3.70;;
20511;SDS011;10414;52.074;5.126;2023-04-30T09:03:06;7.40;;;4.13;;
20511;SDS011;10414;52.074;5.126;2023-04-30T09:05:35;8.90;;;5.63;;
20511;SDS011;10414;52.074;5.126;2023-04-30T09:08:02;8.43;;;4.55;;
20511;SDS011;10414;52.074;5.126;2023-04-30T09:10:32;7.07;;;4.03;;
20511;SDS011;10414;52.074;5.126;2023-04-30T09:12:59;7.45;;;3.30;;
20511;SDS011;10414;52.074;5.126;2023-04-30T09:15:27;6.85;;;3.88;;
20511;SDS011;10414;52.074;5.126;2023-04-30T09:20:38;5.28;;;3.15;;
20511;SDS011;10414;52.074;5.126;2023-04-30T09:23:20;7.10;;;3.47;;
20511;SDS011;10414;52.074;5.126;2023-04-30T09:25:48;7.35;;;3.80;;
20511;SDS011;10414;52.074;5.126;2023-04-30T09:28:15;6.95;;;4.15;;
20511;SDS011;10414;52.074;5.126;2023-04-30T09:30:42;8.35;;;4.25;;
20511;SDS011;10414;52.074;5.126;2023-04-30T09:33:09;6.63;;;3.97;;
20511;SDS011;10414;52.074;5.126;2023-04-30T09:35:36;7.43;;;4.38;;
20511;SDS011;10414;52.074;5.126;2023-04-30T09:38:05;6.57;;;3.45;;
20511;SDS011;10414;52.074;5.126;2023-04-30T09:40:35;6.97;;;3.72;;
20511;SDS011;10414;52.074;5.126;2023-04-30T09:43:05;6.72;;;3.88;;
20511;SDS011;10414;52.074;5.126;2023-04-30T09:45:39;7.03;;;3.53;;
20511;SDS011;10414;52.074;5.126;2023-04-30T09:48:07;5.15;;;3.22;;
20511;SDS011;10414;52.074;5.126;2023-04-30T09:50:38;7.57;;;3.33;;
20511;SDS011;10414;52.074;5.126;2023-04-30T09:55:33;6.15;;;3.13;;
20511;SDS011;10414;52.074;5.126;2023-04-30T09:58:02;6.68;;;3.53;;
20511;SDS011;10414;52.074;5.126;2023-04-30T10:00:32;6.47;;;3.25;;
20511;SDS011;10414;52.074;5.126;2023-04-30T10:03:00;6.05;;;3.45;;
20511;SDS011;10414;52.074;5.126;2023-04-30T10:05:33;5.78;;;3.20;;
20511;SDS011;10414;52.074;5.126;2023-04-30T10:08:03;5.93;;;3.20;;
20511;SDS011;10414;52.074;5.126;2023-04-30T10:10:32;5.60;;;2.90;;
20511;SDS011;10414;52.074;5.126;2023-04-30T10:13:01;4.53;;;3.00;;
20511;SDS011;10414;52.074;5.126;2023-04-30T10:15:33;5.22;;;3.08;;
20511;SDS011;10414;52.074;5.126;2023-04-30T10:18:04;5.35;;;2.90;;
20511;SDS011;10414;52.074;5.126;2023-04-30T10:20:34;5.55;;;3.47;;
20511;SDS011;10414;52.074;5.126;2023-04-30T10:23:02;5.85;;;2.78;;
20511;SDS011;10414;52.074;5.126;2023-04-30T10:25:29;5.55;;;3.00;;
20511;SDS011;10414;52.074;5.126;2023-04-30T10:27:58;5.43;;;3.00;;
20511;SDS011;10414;52.074;5.126;2023-04-30T10:30:24;5.18;;;3.00;;
20511;SDS011;10414;52.074;5.126;2023-04-30T10:32:54;5.72;;;3.40;;
20511;SDS011;10414;52.074;5.126;2023-04-30T10:35:29;5.85;;;2.47;;
20511;SDS011;10414;52.074;5.126;2023-04-30T10:38:06;5.20;;;3.10;;
20511;SDS011;10414;52.074;5.126;2023-04-30T10:40:44;6.90;;;3.45;;
20511;SDS011;10414;52.074;5.126;2023-04-30T10:43:12;6.53;;;3.40;;
20511;SDS011;10414;52.074;5.126;2023-04-30T10:45:40;5.78;;;2.40;;
20511;SDS011;10414;52.074;5.126;2023-04-30T10:48:10;5.55;;;2.53;;
20511;SDS011;10414;52.074;5.126;2023-04-30T10:50:40;5.80;;;2.80;;
20511;SDS011;10414;52.074;5.126;2023-04-30T10:53:11;5.47;;;2.90;;
20511;SDS011;10414;52.074;5.126;2023-04-30T10:55:44;4.85;;;2.85;;
20511;SDS011;10414;52.074;5.126;2023-04-30T10:58:22;5.38;;;2.45;;
20511;SDS011;10414;52.074;5.126;2023-04-30T11:01:05;4.47;;;2.70;;
20511;SDS011;10414;52.074;5.126;2023-04-30T11:03:36;5.00;;;3.38;;
20511;SDS011;10414;52.074;5.126;2023-04-30T11:06:08;5.28;;;2.60;;
20511;SDS011;10414;52.074;5.126;2023-04-30T11:08:37;5.30;;;2.90;;
20511;SDS011;10414;52.074;5.126;2023-04-30T11:11:06;4.18;;;2.65;;
20511;SDS011;10414;52.074;5.126;2023-04-30T11:13:37;4.22;;;2.92;;
20511;SDS011;10414;52.074;5.126;2023-04-30T11:16:06;5.25;;;2.60;;
20511;SDS011;10414;52.074;5.126;2023-04-30T11:18:33;6.03;;;2.50;;
20511;SDS011;10414;52.074;5.126;2023-04-30T11:21:07;4.63;;;2.42;;
20511;SDS011;10414;52.074;5.126;2023-04-30T11:23:34;4.97;;;2.60;;
20511;SDS011;10414;52.074;5.126;2023-04-30T11:26:01;5.80;;;2.47;;
20511;SDS011;10414;52.074;5.126;2023-04-30T11:28:31;5.53;;;3.05;;
20511;SDS011;10414;52.074;5.126;2023-04-30T11:30:59;4.85;;;2.95;;
20511;SDS011;10414;52.074;5.126;2023-04-30T11:33:27;4.65;;;2.50;;
20511;SDS011;10414;52.074;5.126;2023-04-30T11:35:55;4.65;;;2.50;;
20511;SDS011;10414;52.074;5.126;2023-04-30T11:38:26;4.30;;;2.50;;
20511;SDS011;10414;52.074;5.126;2023-04-30T11:40:54;5.60;;;2.03;;
20511;SDS011;10414;52.074;5.126;2023-04-30T11:43:22;3.70;;;2.05;;
20511;SDS011;10414;52.074;5.126;2023-04-30T11:46:03;4.57;;;2.47;;
20511;SDS011;10414;52.074;5.126;2023-04-30T11:48:32;4.40;;;2.30;;
20511;SDS011;10414;52.074;5.126;2023-04-30T11:51:01;3.75;;;1.95;;
20511;SDS011;10414;52.074;5.126;2023-04-30T11:53:30;6.15;;;2.30;;
20511;SDS011;10414;52.074;5.126;2023-04-30T11:56:01;6.65;;;2.20;;
20511;SDS011;10414;52.074;5.126;2023-04-30T11:58:32;5.32;;;2.65;;
20511;SDS011;10414;52.074;5.126;2023-04-30T12:00:59;5.13;;;2.40;;
20511;SDS011;10414;52.074;5.126;2023-04-30T12:03:26;4.93;;;2.58;;
20511;SDS011;10414;52.074;5.126;2023-04-30T12:05:53;4.65;;;2.53;;
20511;SDS011;10414;52.074;5.126;2023-04-30T12:08:20;5.57;;;2.50;;
20511;SDS011;10414;52.074;5.126;2023-04-30T12:10:49;4.57;;;2.42;;
20511;SDS011;10414;52.074;5.126;2023-04-30T12:13:16;7.82;;;2.78;;
20511;SDS011;10414;52.074;5.126;2023-04-30T12:15:46;6.18;;;2.50;;
20511;SDS011;10414;52.074;5.126;2023-04-30T12:18:23;5.63;;;2.55;;
20511;SDS011;10414;52.074;5.126;2023-04-30T12:20:50;5.90;;;2.50;;
20511;SDS011;10414;52.074;5.126;2023-04-30T12:23:17;4.30;;;2.25;;
20511;SDS011;10414;52.074;5.126;2023-04-30T12:25:44;4.00;;;1.75;;
20511;SDS011;10414;52.074;5.126;2023-04-30T12:28:13;3.75;;;1.70;;
20511;SDS011;10414;52.074;5.126;2023-04-30T12:30:40;5.90;;;2.25;;
20511;SDS011;10414;52.074;5.126;2023-04-30T12:33:08;5.80;;;2.20;;
20511;SDS011;10414;52.074;5.126;2023-04-30T12:35:36;8.70;;;2.03;;
20511;SDS011;10414;52.074;5.126;2023-04-30T12:38:08;4.25;;;1.95;;
20511;SDS011;10414;52.074;5.126;2023-04-30T12:40:34;4.88;;;1.90;;
20511;SDS011;10414;52.074;5.126;2023-04-30T12:43:02;4.22;;;2.00;;
20511;SDS011;10414;52.074;5.126;2023-04-30T12:45:44;3.92;;;1.80;;
20511;SDS011;10414;52.074;5.126;2023-04-30T12:48:12;4.13;;;1.90;;
20511;SDS011;10414;52.074;5.126;2023-04-30T12:50:40;5.10;;;1.98;;
20511;SDS011;10414;52.074;5.126;2023-04-30T12:53:08;6.43;;;1.92;;
20511;SDS011;10414;52.074;5.126;2023-04-30T12:55:35;5.43;;;1.98;;
20511;SDS011;10414;52.074;5.126;2023-04-30T12:58:03;4.55;;;1.73;;
20511;SDS011;10414;52.074;5.126;2023-04-30T13:00:46;3.33;;;1.40;;
20511;SDS011;10414;52.074;5.126;2023-04-30T13:03:14;5.32;;;1.80;;
20511;SDS011;10414;52.074;5.126;2023-04-30T13:05:45;3.92;;;1.67;;
20511;SDS011;10414;52.074;5.126;2023-04-30T13:08:13;5.85;;;1.55;;
20511;SDS011;10414;52.074;5.126;2023-04-30T13:10:40;4.40;;;1.55;;
20511;SDS011;10414;52.074;5.126;2023-04-30T13:13:07;4.18;;;1.90;;
20511;SDS011;10414;52.074;5.126;2023-04-30T13:15:35;4.90;;;1.63;;
20511;SDS011;10414;52.074;5.126;2023-04-30T13:18:03;4.15;;;1.58;;
20511;SDS011;10414;52.074;5.126;2023-04-30T13:20:33;4.75;;;1.73;;
20511;SDS011;10414;52.074;5.126;2023-04-30T13:22:59;4.20;;;1.40;;
20511;SDS011;10414;52.074;5.126;2023-04-30T13:25:26;3.30;;;1.80;;
20511;SDS011;10414;52.074;5.126;2023-04-30T13:27:53;4.95;;;1.90;;
20511;SDS011;10414;52.074;5.126;2023-04-30T13:30:20;3.85;;;1.85;;
20511;SDS011;10414;52.074;5.126;2023-04-30T13:32:47;4.88;;;1.88;;
20511;SDS011;10414;52.074;5.126;2023-04-30T13:35:16;5.25;;;2.17;;
20511;SDS011;10414;52.074;5.126;2023-04-30T13:37:43;4.45;;;1.83;;
20511;SDS011;10414;52.074;5.126;2023-04-30T13:40:10;5.70;;;2.10;;
20511;SDS011;10414;52.074;5.126;2023-04-30T13:42:37;5.72;;;1.58;;
20511;SDS011;10414;52.074;5.126;2023-04-30T13:45:04;4.00;;;1.60;;
20511;SDS011;10414;52.074;5.126;2023-04-30T13:47:32;4.38;;;1.42;;
20511;SDS011;10414;52.074;5.126;2023-04-30T13:49:59;4.35;;;1.60;;
20511;SDS011;10414;52.074;5.126;2023-04-30T13:52:27;4.00;;;1.55;;
20511;SDS011;10414;52.074;5.126;2023-04-30T13:54:54;3.92;;;1.80;;
20511;SDS011;10414;52.074;5.126;2023-04-30T13:57:22;3.45;;;1.70;;
20511;SDS011;10414;52.074;5.126;2023-04-30T13:59:49;4.25;;;1.70;;
20511;SDS011;10414;52.074;5.126;2023-04-30T14:02:18;3.70;;;1.70;;
20511;SDS011;10414;52.074;5.126;2023-04-30T14:04:46;4.15;;;1.60;;
20511;SDS011;10414;52.074;5.126;2023-04-30T14:07:12;3.67;;;1.48;;
20511;SDS011;10414;52.074;5.126;2023-04-30T14:09:40;3.58;;;1.60;;
20511;SDS011;10414;52.074;5.126;2023-04-30T14:12:07;3.67;;;1.73;;
20511;SDS011;10414;52.074;5.126;2023-04-30T14:14:34;5.15;;;1.95;;
20511;SDS011;10414;52.074;5.126;2023-04-30T14:17:01;4.35;;;2.03;;
20511;SDS011;10414;52.074;5.126;2023-04-30T14:19:28;4.75;;;1.92;;
20511;SDS011;10414;52.074;5.126;2023-04-30T14:21:55;4.38;;;1.83;;
20511;SDS011;10414;52.074;5.126;2023-04-30T14:24:22;4.25;;;1.80;;
20511;SDS011;10414;52.074;5.126;2023-04-30T14:26:51;4.75;;;1.70;;
20511;SDS011;10414;52.074;5.126;2023-04-30T14:29:18;5.18;;;1.70;;
20511;SDS011;10414;52.074;5.126;2023-04-30T14:31:45;4.75;;;1.65;;
20511;SDS011;10414;52.074;5.126;2023-04-30T14:34:12;3.83;;;1.73;;
20511;SDS011;10414;52.074;5.126;2023-04-30T14:36:39;4.55;;;1.75;;
20511;SDS011;10414;52.074;5.126;2023-04-30T14:39:06;3.33;;;1.70;;
20511;SDS011;10414;52.074;5.126;2023-04-30T14:41:33;3.60;;;1.65;;
20511;SDS011;10414;52.074;5.126;2023-04-30T14:44:03;4.70;;;1.80;;
20511;SDS011;10414;52.074;5.126;2023-04-30T14:46:30;5.13;;;1.90;;
20511;SDS011;10414;52.074;5.126;2023-04-30T14:48:58;5.78;;;1.80;;
20511;SDS011;10414;52.074;5.126;2023-04-30T14:51:25;5.13;;;1.70;;
20511;SDS011;10414;52.074;5.126;2023-04-30T14:53:53;4.57;;;2.00;;